Latest Coastal Weather Observations for Cape Leeuwin

IDW60701

Issued at 9:35 pm WST Friday 18 April 2014 (issued every 10 minutes, with the page automatically refreshed every 10 minutes)

About coastal observations | Map of coastal stations | Coastal observations for WA | Marine services | Other Formats
Station Details ID: 009518 Name: CAPE LEEUWIN Lat: -34.37 Lon: 115.14 Height: 13.0 m
Data from the previous 72 hours. | See also: Recent months at Cape Leeuwin
Date/Time
WST
Temp

°C
Wind Pressure Rain
since 9am
mm
Weather Cloud Vis
km
Sea
Height
m
Swell
Dir
 
Speed
knots
Gust
knots
hPa Trend Height
m
Period
s
Dir
18/09:30pm 18.1 S 9 11 1021.1 - 0.0 - - - - - - -
18/09:00pm 18.3 S 10 13 1021.0 - 0.0 - - - - - - -
18/08:30pm 18.6 SSW 10 14 1021.1 - 0.0 - - - - - - -
18/08:00pm 18.6 S 10 13 1021.0 - 0.0 - - - - - - -
18/07:30pm 18.6 S 10 12 1021.0 - 0.0 - - - - - - -
18/07:00pm 18.4 S 8 10 1020.7 - 0.0 - - - - - - -
18/06:30pm 18.2 SSW 8 10 1020.5 - 0.0 - - - - - - -
18/06:00pm 18.6 SSW 8 10 1020.1 - 0.0 - - - - - - -
18/05:30pm 19.4 SSW 7 10 1020.1 - 0.0 - - - - - - -
18/05:00pm 20.2 SSW 7 10 1020.0 - 0.0 - - - - - - -
18/04:30pm 20.4 SW 7 9 1019.9 - 0.0 - - - - - - -
18/04:00pm 20.9 WSW 9 11 1020.0 - 0.0 - - - - - - -
18/03:30pm 21.1 SW 9 12 1020.2 - 0.0 - - - - - - -
18/03:00pm 21.2 WSW 9 10 1020.2 - 0.0 - - - - - - -
18/02:30pm 21.2 WSW 8 11 1020.3 - 0.0 - - - - - - -
18/02:00pm 20.6 WSW 8 10 1020.4 - 0.0 - - - - - - -
18/01:30pm 21.1 WSW 9 11 1020.7 - 0.0 - - - - - - -
18/01:00pm 20.3 SW 6 8 1021.1 - 0.0 - - - - - - -
18/12:30pm 20.8 SW 7 9 1021.7 - 0.0 - - - - - - -
18/12:00pm 20.2 S 5 7 1021.8 - 0.0 - - - - - - -
18/11:30am 20.4 E 6 10 1022.1 - 0.0 - - - - - - -
18/11:00am 21.2 NE 9 13 1022.4 - 0.0 - - - - - - -
18/10:30am 20.7 NNE 8 12 1022.5 - 0.0 - - - - - - -
18/10:00am 20.0 NNE 10 15 1022.6 - 0.0 - - - - - - -
18/09:30am 18.7 NE 12 17 1022.9 - 0.0 - - - - - - -
18/09:00am 18.0 NE 11 14 1023.0 - 0.0 - - - - - - -
18/08:30am 17.4 ENE 9 11 1023.5 - 0.0 - - - - - - -
18/08:00am 15.8 NE 8 10 1023.6 - 0.0 - - - - - - -
18/07:30am 15.0 NNE 11 14 1023.4 - 0.0 - - - - - - -
18/07:00am 14.8 NE 11 14 1023.2 - 0.0 - - - - - - -
18/06:30am 14.7 NE 12 16 1023.1 - 0.0 - - - - - - -
18/06:00am 14.9 NE 12 16 1023.2 - 0.0 - - - - - - -
18/05:30am 14.4 NE 13 17 1023.4 - 0.0 - - - - - - -
18/05:00am 14.3 NE 11 15 1023.5 - 0.0 - - - - - - -
18/04:30am 14.6 ENE 10 12 1023.6 - 0.0 - - - - - - -
18/04:00am 14.8 ENE 9 11 1023.5 - 0.0 - - - - - - -
18/03:30am 15.4 ENE 12 14 1023.4 - 0.0 - - - - - - -
18/03:00am 16.3 ENE 12 15 1023.3 - 0.0 - - - - - - -
18/02:30am 17.1 E 12 15 1023.5 - 0.0 - - - - - - -
18/02:00am 17.2 E 13 17 1023.6 - 0.0 - - - - - - -
18/01:30am 17.0 ENE 9 13 1023.7 - 0.0 - - - - - - -
18/01:00am 17.2 ENE 7 14 1023.9 - 0.0 - - - - - - -
18/12:30am 17.8 ESE 8 11 1023.8 - 0.0 - - - - - - -
18/12:00am 17.9 ESE 8 10 1023.8 - 0.0 - - - - - - -
 
Date/Time
WST
Temp

°C
Wind Pressure Rain
since 9am
mm
Weather Cloud Vis
km
Sea
Height
m
Swell
Dir
 
Speed
knots
Gust
knots
hPa Trend Height
m
Period
s
Dir
17/11:30pm 18.2 E 10 11 1024.3 - 0.0 - - - - - - -
17/11:00pm 18.2 SE 9 11 1024.5 - 0.0 - - - - - - -
17/10:30pm 18.3 SE 10 14 1024.6 - 0.0 - - - - - - -
17/10:00pm 18.1 SE 11 14 1024.6 - 0.0 - - - - - - -
17/09:30pm 18.1 SE 11 15 1024.5 - 0.0 - - - - - - -
17/09:00pm 18.2 SE 13 15 1024.2 - 0.0 - - - - - - -
17/08:30pm 18.3 SE 13 16 1024.4 - 0.0 - - - - - - -
17/08:00pm 18.3 SSE 13 16 1024.2 - 0.0 - - - - - - -
17/07:30pm 18.0 SSE 15 18 1024.0 - 0.0 - - - - - - -
17/07:00pm 17.9 SSE 15 19 1023.7 - 0.0 - - - - - - -
17/06:30pm 17.8 S 13 16 1023.4 - 0.0 - - - - - - -
17/06:00pm 18.0 S 13 16 1023.1 - 0.0 - - - - - - -
17/05:30pm 18.5 S 15 19 1022.8 - 0.0 - - - - - - -
17/05:00pm 19.2 S 11 14 1022.6 - 0.0 - - - - - - -
17/04:30pm 19.5 S 12 16 1022.5 - 0.0 - - - - - - -
17/04:00pm 20.0 S 11 14 1022.5 - 0.0 - - - - - - -
17/03:30pm 20.1 SSW 13 18 1022.4 - 0.0 - - - - - - -
17/03:00pm 20.6 SW 10 13 1022.1 - 0.0 - - - - - - -
17/02:30pm 21.7 SSW 10 13 1022.1 - 0.0 - - - - - - -
17/02:00pm 22.3 SSW 12 15 1021.9 - 0.0 - - - - - - -
17/01:30pm 20.5 SW 14 16 1021.8 - 0.0 - - - - - - -
17/01:00pm 21.2 SW 14 18 1021.9 - 0.0 - - - - - - -
17/12:30pm 20.8 SW 18 21 1022.1 - 0.0 - - - - - - -
17/12:00pm 21.0 SW 16 19 1022.3 - 0.0 - - - - - - -
17/11:30am 20.3 SW 16 23 1022.4 - 0.0 - - - - - - -
17/11:00am 20.4 SW 15 18 1022.3 - 0.0 - - - - - - -
17/10:30am 20.4 WSW 14 18 1022.3 - 0.0 - - - - - - -
17/10:00am 20.7 WSW 17 21 1022.0 - 0.0 - - - - - - -
17/09:30am 20.7 WSW 15 17 1021.9 - 0.0 - - - - - - -
17/09:00am 19.6 SW 15 17 1021.7 - 0.4 - - - - - - -
17/08:30am 19.3 SW 16 19 1021.6 - 0.4 - - - - - - -
17/08:00am 19.4 WSW 15 19 1021.2 - 0.4 - - - - - - -
17/07:30am 19.0 SW 16 21 1020.8 - 0.4 - - - - - - -
17/07:00am 18.6 WSW 19 22 1020.5 - 0.2 - - - - - - -
17/06:30am 18.4 WSW 20 24 1020.2 - 0.2 - - - - - - -
17/06:00am 18.8 WSW 15 20 1019.8 - 0.2 - - - - - - -
17/05:30am 18.8 WSW 16 20 1019.7 - 0.2 - - - - - - -
17/05:00am 18.3 W 11 14 1019.5 - 0.2 - - - - - - -
17/04:30am 18.0 W 16 20 1019.4 - 0.2 - - - - - - -
17/04:15am 18.0 W 22 25 1019.2 - 0.2 - - - - - - -
17/04:00am 18.3 WSW 21 24 1019.1 - 0.2 - - - - - - -
17/03:31am 19.3 W 18 29 1018.9 - 0.0 - - - - - - -
17/03:30am 19.4 W 18 25 1019.0 - 0.0 - - - - - - -
17/03:00am 19.4 W 17 19 1019.1 - 0.0 - - - - - - -
17/02:30am 19.5 W 17 21 1019.4 - 0.0 - - - - - - -
17/02:00am 19.5 W 15 17 1019.4 - 0.0 - - - - - - -
17/01:30am 19.3 W 14 18 1019.5 - 0.0 - - - - - - -
17/01:00am 19.6 W 18 23 1019.5 - 0.0 - - - - - - -
17/12:30am 19.4 W 17 21 1019.6 - 0.0 - - - - - - -
17/12:00am 19.5 W 17 19 1019.5 - 0.0 - - - - - - -
 
Date/Time
WST
Temp

°C
Wind Pressure Rain
since 9am
mm
Weather Cloud Vis
km
Sea
Height
m
Swell
Dir
 
Speed
knots
Gust
knots
hPa Trend Height
m
Period
s
Dir
16/11:30pm 19.4 W 18 22 1019.7 - 0.0 - - - - - - -
16/11:00pm 19.2 W 18 21 1019.9 - 0.0 - - - - - - -
16/10:30pm 19.2 WSW 17 21 1020.1 - 0.0 - - - - - - -
16/10:00pm 19.6 W 14 17 1020.1 - 0.0 - - - - - - -
16/09:30pm 19.4 W 17 21 1020.2 - 0.0 - - - - - - -
16/09:00pm 19.5 W 15 19 1020.1 - 0.0 - - - - - - -
16/08:30pm 19.2 W 15 19 1020.2 - 0.0 - - - - - - -
16/08:00pm 19.2 W 13 17 1020.2 - 0.0 - - - - - - -
16/07:30pm 18.5 W 9 15 1020.3 - 0.0 - - - - - - -
16/07:00pm 19.2 W 20 22 1020.1 - 0.0 - - - - - - -
16/06:30pm 19.3 W 15 19 1020.0 - 0.0 - - - - - - -
16/06:00pm 19.4 W 15 21 1019.9 - 0.0 - - - - - - -
16/05:30pm 19.4 W 14 17 1020.0 - 0.0 - - - - - - -
16/05:00pm 19.4 WNW 16 19 1020.0 - 0.0 - - - - - - -
16/04:30pm 19.2 WNW 12 15 1020.2 - 0.0 - - - - - - -
16/04:00pm 19.5 WNW 12 15 1020.4 - 0.0 - - - - - - -
16/03:30pm 19.5 W 12 14 1020.6 - 0.0 - - - - - - -
16/03:00pm 20.1 WNW 14 16 1020.7 - 0.0 - - - - - - -
16/02:30pm 20.5 WNW 14 17 1020.8 - 0.0 - - - - - - -
16/02:00pm 19.7 W 11 15 1021.1 - 0.0 - - - - - - -
16/01:30pm 20.0 WNW 11 13 1021.2 - 0.0 - - - - - - -
16/01:00pm 19.8 WNW 11 14 1021.7 - 0.0 - - - - - - -
16/12:30pm 20.0 WNW 8 11 1022.1 - 0.0 - - - - - - -
16/12:00pm 19.5 NW 10 13 1022.6 - 0.0 - - - - - - -
16/11:30am 19.6 WNW 7 11 1023.0 - 0.0 - - - - - - -
16/11:00am 19.4 W 6 9 1023.2 - 0.0 - - - - - - -
16/10:30am 19.0 WNW 7 9 1023.3 - 0.0 - - - - - - -
16/10:00am 18.8 W 7 9 1023.5 - 0.0 - - - - - - -
16/09:30am 18.6 WNW 9 14 1023.5 - 0.0 - - - - - - -
16/09:00am 18.5 W 9 12 1023.4 - 1.0 - - - - - - -
16/08:30am 18.4 W 7 10 1023.5 - 1.0 - - - - - - -
16/08:00am 18.1 W 5 7 1023.3 - 1.0 - - - - - - -
16/07:30am 18.0 WSW 8 10 1023.0 - 1.0 - - - - - - -
16/07:00am 17.9 WSW 10 12 1022.5 - 1.0 - - - - - - -
16/06:30am 18.0 WSW 12 14 1022.4 - 1.0 - - - - - - -
16/06:00am 18.0 WSW 12 14 1022.2 - 1.0 - - - - - - -
16/05:30am 18.1 SW 11 13 1022.2 - 1.0 - - - - - - -
16/05:00am 18.3 SW 10 12 1022.2 - 1.0 - - - - - - -
16/04:30am 18.3 SW 11 13 1022.2 - 1.0 - - - - - - -
16/04:00am 18.3 SW 11 13 1022.1 - 1.0 - - - - - - -
16/03:30am 18.0 S 6 13 1022.0 - 1.0 - - - - - - -
16/03:00am 17.9 S 8 12 1022.1 - 1.0 - - - - - - -
16/02:30am 18.1 WSW 7 9 1022.4 - 1.0 - - - - - - -
16/02:00am 18.1 SW 10 12 1022.6 - 1.0 - - - - - - -
16/01:30am 18.3 WSW 12 14 1022.8 - 1.0 - - - - - - -
16/01:00am 18.2 SSW 8 11 1022.8 - 1.0 - - - - - - -
16/12:30am 18.4 SW 9 14 1022.8 - 1.0 - - - - - - -
16/12:00am 18.3 SSW 10 15 1022.8 - 1.0 - - - - - - -
 
Date/Time
WST
Temp

°C
Wind Pressure Rain
since 9am
mm
Weather Cloud Vis
km
Sea
Height
m
Swell
Dir
 
Speed
knots
Gust
knots
hPa Trend Height
m
Period
s
Dir
15/11:30pm 18.1 SSW 10 13 1023.0 - 1.0 - - - - - - -
15/11:00pm 17.6 SSW 11 15 1023.3 - 1.0 - - - - - - -
15/10:30pm 17.6 SW 11 14 1023.3 - 1.0 - - - - - - -
15/10:00pm 17.9 SSW 12 16 1023.4 - 1.0 - - - - - - -

Other Formats:

Comma delimited format used in spreadsheet applications
http://www.bom.gov.au/fwo/IDW60701/IDW60701.94601.axf

JavaScript Object Notation format (JSON) in row-major order
http://www.bom.gov.au/fwo/IDW60701/IDW60701.94601.json